createdAt,value
2022-07-27T00:01:08.969Z,16.29
2022-07-27T00:03:37.154Z,16.29
2022-07-27T00:06:05.535Z,16.19
2022-07-27T00:08:33.535Z,16.09
2022-07-27T00:11:01.601Z,16.28
2022-07-27T00:13:29.737Z,16.27
2022-07-27T00:15:57.699Z,16.26
2022-07-27T00:18:26.956Z,16.24
2022-07-27T00:20:55.019Z,16.24
2022-07-27T00:23:23.120Z,16.24
2022-07-27T00:25:51.045Z,16.22
2022-07-27T00:28:18.925Z,16.04
2022-07-27T00:30:47.258Z,16.19
2022-07-27T00:33:16.939Z,16.02
2022-07-27T00:35:47.034Z,16.15
2022-07-27T00:38:16.642Z,16.05
2022-07-27T00:40:45.246Z,16.08
2022-07-27T00:43:13.808Z,16.02
2022-07-27T00:45:41.905Z,15.90
2022-07-27T00:48:09.758Z,15.99
2022-07-27T00:50:39.496Z,15.96
2022-07-27T00:53:09.290Z,16.03
2022-07-27T00:55:37.754Z,16.01
2022-07-27T00:58:08.874Z,16.00
2022-07-27T01:00:37.993Z,16.00
2022-07-27T01:03:09.125Z,15.99
2022-07-27T01:05:43.224Z,15.69
2022-07-27T01:08:15.240Z,15.64
2022-07-27T01:10:44.729Z,15.94
2022-07-27T01:13:13.635Z,15.93
2022-07-27T01:15:43.184Z,15.95
2022-07-27T01:18:26.882Z,14.98
2022-07-27T01:20:54.922Z,15.91
2022-07-27T01:23:24.487Z,15.89
2022-07-27T01:25:52.665Z,15.89
2022-07-27T01:28:20.670Z,15.90
2022-07-27T01:30:48.813Z,15.84
2022-07-27T01:33:16.842Z,15.84
2022-07-27T01:35:45.009Z,15.74
2022-07-27T01:38:13.699Z,15.84
2022-07-27T01:40:43.181Z,15.82
2022-07-27T01:43:11.064Z,15.75
2022-07-27T01:45:40.334Z,15.75
2022-07-27T01:48:08.621Z,15.72
2022-07-27T01:50:36.646Z,15.68
2022-07-27T01:53:04.895Z,15.66
2022-07-27T01:55:39.166Z,15.50
2022-07-27T01:58:09.521Z,15.58
2022-07-27T02:00:38.052Z,15.56
2022-07-27T02:03:07.057Z,15.52
2022-07-27T02:05:35.508Z,15.43
2022-07-27T02:08:03.791Z,15.48
2022-07-27T02:10:32.112Z,15.45
2022-07-27T02:12:59.227Z,15.42
2022-07-27T02:15:38.810Z,15.39
2022-07-27T02:18:33.552Z,15.33
2022-07-27T02:20:59.369Z,15.32
2022-07-27T02:23:27.494Z,15.30
2022-07-27T02:25:55.429Z,15.29
2022-07-27T02:28:23.427Z,15.26
2022-07-27T02:30:53.009Z,15.24
2022-07-27T02:33:21.097Z,15.24
2022-07-27T02:35:49.279Z,15.25
2022-07-27T02:38:17.578Z,15.18
2022-07-27T02:40:45.565Z,15.26
2022-07-27T02:43:14.159Z,15.25
2022-07-27T02:45:42.406Z,15.25
2022-07-27T02:48:24.164Z,15.24
2022-07-27T02:50:52.538Z,15.25
2022-07-27T02:53:20.406Z,15.24
2022-07-27T02:55:48.290Z,15.24
2022-07-27T02:58:16.302Z,15.22
2022-07-27T03:00:44.262Z,15.22
2022-07-27T03:03:12.618Z,15.23
2022-07-27T03:05:42.033Z,15.23
2022-07-27T03:08:09.931Z,15.27
2022-07-27T03:10:38.061Z,15.30
2022-07-27T03:13:06.452Z,15.27
2022-07-27T03:15:35.388Z,15.30
2022-07-27T03:18:03.843Z,15.17
2022-07-27T03:20:32.071Z,15.31
2022-07-27T03:23:01.306Z,15.29
2022-07-27T03:25:29.598Z,15.24
2022-07-27T03:28:03.507Z,15.15
2022-07-27T03:30:32.123Z,14.57
2022-07-27T03:33:00.295Z,15.31
2022-07-27T03:35:28.311Z,15.31
2022-07-27T03:37:56.386Z,15.31
2022-07-27T03:40:25.841Z,15.28
2022-07-27T03:42:53.803Z,15.27
2022-07-27T03:45:21.815Z,15.30
2022-07-27T03:47:49.866Z,15.26
2022-07-27T03:50:17.934Z,15.14
2022-07-27T03:52:46.009Z,15.20
2022-07-27T03:55:14.141Z,15.21
2022-07-27T03:57:43.620Z,15.16
2022-07-27T04:00:12.603Z,15.24
2022-07-27T04:02:41.029Z,15.22
2022-07-27T04:05:09.999Z,15.24
2022-07-27T04:07:37.959Z,15.29
2022-07-27T04:10:07.086Z,15.33
2022-07-27T04:12:37.755Z,15.24
2022-07-27T04:15:08.633Z,15.43
2022-07-27T04:17:54.919Z,15.45
2022-07-27T04:20:24.676Z,15.48
2022-07-27T04:22:52.562Z,15.51
2022-07-27T04:25:20.540Z,15.46
2022-07-27T04:27:49.051Z,15.59
2022-07-27T04:30:18.441Z,15.61
2022-07-27T04:32:46.380Z,15.62
2022-07-27T04:35:14.513Z,15.63
2022-07-27T04:37:58.955Z,15.63
2022-07-27T04:40:31.246Z,15.65
2022-07-27T04:42:59.111Z,15.66
2022-07-27T04:45:28.534Z,15.67
2022-07-27T04:47:56.647Z,15.74
2022-07-27T04:50:24.779Z,15.79
2022-07-27T04:52:52.859Z,15.80
2022-07-27T04:55:21.095Z,15.81
2022-07-27T04:57:48.975Z,15.76
2022-07-27T05:00:17.909Z,15.84
2022-07-27T05:02:47.265Z,15.95
2022-07-27T05:05:15.216Z,15.98
2022-07-27T05:07:43.269Z,15.98
2022-07-27T05:10:15.302Z,15.89
2022-07-27T05:12:46.034Z,15.82
2022-07-27T05:15:14.087Z,15.80
2022-07-27T05:17:41.958Z,15.84
2022-07-27T05:20:12.903Z,15.79
2022-07-27T05:22:41.179Z,15.82
2022-07-27T05:25:09.902Z,15.73
2022-07-27T05:27:54.296Z,15.85
2022-07-27T05:30:24.195Z,15.91
2022-07-27T05:32:53.104Z,15.94
2022-07-27T05:35:23.109Z,15.88
2022-07-27T05:37:51.021Z,15.85
2022-07-27T05:40:19.161Z,15.54
2022-07-27T05:42:47.026Z,15.88
2022-07-27T05:45:16.750Z,15.95
2022-07-27T05:47:44.884Z,15.95
2022-07-27T05:50:12.848Z,16.06
2022-07-27T05:52:42.282Z,16.10
2022-07-27T05:55:11.001Z,15.20
2022-07-27T05:57:40.951Z,15.89
2022-07-27T06:00:10.255Z,16.23
2022-07-27T06:02:38.412Z,16.19
2022-07-27T06:05:09.428Z,16.39
2022-07-27T06:08:00.003Z,16.50
2022-07-27T06:10:29.029Z,16.34
2022-07-27T06:12:57.139Z,16.42
2022-07-27T06:15:25.365Z,16.38
2022-07-27T06:17:54.103Z,16.47
2022-07-27T06:20:24.217Z,16.49
2022-07-27T06:22:55.661Z,16.54
2022-07-27T06:25:34.235Z,16.55
2022-07-27T06:28:04.039Z,16.63
2022-07-27T06:30:32.191Z,16.41
2022-07-27T06:33:00.246Z,16.62
2022-07-27T06:35:28.394Z,16.67
2022-07-27T06:37:57.888Z,16.74
2022-07-27T06:40:29.562Z,16.79
2022-07-27T06:42:58.518Z,16.87
2022-07-27T06:45:27.454Z,16.83
2022-07-27T06:47:55.348Z,16.75
2022-07-27T06:50:24.156Z,16.56
2022-07-27T06:52:52.289Z,16.80
2022-07-27T06:55:21.555Z,16.70
2022-07-27T06:57:50.147Z,16.64
2022-07-27T07:00:18.397Z,16.72
2022-07-27T07:02:54.414Z,16.93
2022-07-27T07:05:23.110Z,17.15
2022-07-27T07:07:51.095Z,17.20
2022-07-27T07:10:19.734Z,17.31
2022-07-27T07:12:55.390Z,17.34
2022-07-27T07:15:23.983Z,17.51
2022-07-27T07:17:51.943Z,17.54
2022-07-27T07:20:19.859Z,17.56
2022-07-27T07:22:47.907Z,17.43
2022-07-27T07:25:15.866Z,17.43
2022-07-27T07:27:44.048Z,17.71
2022-07-27T07:30:14.524Z,17.60
2022-07-27T07:32:42.477Z,17.56
2022-07-27T07:35:11.746Z,17.40
2022-07-27T07:37:40.186Z,17.63
2022-07-27T07:40:41.416Z,17.72
2022-07-27T07:43:01.172Z,17.50
2022-07-27T07:45:31.990Z,18.06
2022-07-27T07:48:00.259Z,18.04
2022-07-27T07:50:29.071Z,17.87
2022-07-27T07:52:57.369Z,17.70
2022-07-27T07:55:27.892Z,17.63
2022-07-27T07:57:57.446Z,17.61
2022-07-27T08:00:25.598Z,17.63
2022-07-27T08:02:57.856Z,17.57
2022-07-27T08:05:26.693Z,17.59
2022-07-27T08:07:54.896Z,17.57
2022-07-27T08:10:24.007Z,17.38
2022-07-27T08:12:54.784Z,17.70
2022-07-27T08:15:35.219Z,17.87
2022-07-27T08:18:06.485Z,18.16
2022-07-27T08:20:34.989Z,18.34
2022-07-27T08:23:03.940Z,18.62
2022-07-27T08:25:32.343Z,18.94
2022-07-27T08:28:02.726Z,18.30
2022-07-27T08:30:32.386Z,18.80
2022-07-27T08:33:03.403Z,18.71
2022-07-27T08:35:34.023Z,18.70
2022-07-27T08:38:03.248Z,18.70
2022-07-27T08:40:47.580Z,18.64
2022-07-27T08:43:24.379Z,18.67
2022-07-27T08:45:56.329Z,18.72
2022-07-27T08:48:25.709Z,18.85
2022-07-27T08:50:55.234Z,18.72
2022-07-27T08:53:24.644Z,18.98
2022-07-27T08:55:52.946Z,18.77
2022-07-27T08:58:20.875Z,19.17
2022-07-27T09:00:51.122Z,18.98
2022-07-27T09:03:21.751Z,19.41
2022-07-27T09:05:51.900Z,19.38
2022-07-27T09:08:24.452Z,19.20
2022-07-27T09:10:54.701Z,19.17
2022-07-27T09:13:25.842Z,19.10
2022-07-27T09:16:17.083Z,19.26
2022-07-27T09:18:43.533Z,19.46
2022-07-27T09:21:14.632Z,19.64
2022-07-27T09:23:48.123Z,19.85
2022-07-27T09:26:31.913Z,19.98
2022-07-27T09:29:03.683Z,20.32
2022-07-27T09:31:32.003Z,20.72
2022-07-27T09:34:01.757Z,21.16
2022-07-27T09:36:31.174Z,21.87
2022-07-27T09:39:03.989Z,22.73
2022-07-27T09:41:43.628Z,23.33
2022-07-27T09:44:42.292Z,23.40
2022-07-27T09:47:00.712Z,23.20
2022-07-27T09:49:31.311Z,22.95
2022-07-27T09:52:02.012Z,22.85
2022-07-27T09:54:44.902Z,22.69
2022-07-27T09:57:12.948Z,22.40
2022-07-27T09:59:41.317Z,22.16
2022-07-27T10:02:09.484Z,22.51
2022-07-27T10:04:37.591Z,22.97
2022-07-27T10:07:10.632Z,23.00
2022-07-27T10:09:41.240Z,22.32
2022-07-27T10:12:11.311Z,21.59
2022-07-27T10:14:39.229Z,21.20
2022-07-27T10:17:13.179Z,21.14
2022-07-27T10:19:46.456Z,21.12
2022-07-27T10:22:14.778Z,20.94
2022-07-27T10:24:43.109Z,20.61
2022-07-27T10:27:22.493Z,20.24
2022-07-27T10:29:51.814Z,20.10
2022-07-27T10:32:26.688Z,19.85
2022-07-27T10:34:55.208Z,19.65
2022-07-27T10:37:28.817Z,19.75
2022-07-27T10:40:12.491Z,19.81
2022-07-27T10:42:42.627Z,19.96
2022-07-27T10:45:12.532Z,20.08
2022-07-27T10:47:45.868Z,20.25
2022-07-27T10:50:33.427Z,20.41
2022-07-27T10:53:11.092Z,20.21
2022-07-27T10:55:57.038Z,20.63
2022-07-27T10:58:50.488Z,20.33
2022-07-27T11:01:19.838Z,20.82
2022-07-27T11:03:53.808Z,20.96
2022-07-27T11:06:37.668Z,21.12
2022-07-27T11:11:59.860Z,21.23
2022-07-27T11:14:31.943Z,21.06
2022-07-27T11:17:32.219Z,21.06
2022-07-27T11:19:54.784Z,21.03
2022-07-27T11:25:23.577Z,21.21
2022-07-27T11:27:52.514Z,21.31
2022-07-27T11:30:27.341Z,21.50
2022-07-27T11:32:56.400Z,21.65
2022-07-27T11:35:25.703Z,21.67
2022-07-27T11:38:04.160Z,21.46
2022-07-27T11:41:12.889Z,21.38
2022-07-27T11:43:39.454Z,21.15
2022-07-27T11:46:23.041Z,20.92
2022-07-27T11:49:10.751Z,20.96
2022-07-27T11:51:41.626Z,20.94
2022-07-27T11:54:11.329Z,20.69
2022-07-27T11:56:43.401Z,20.64
2022-07-27T11:59:17.550Z,20.68
2022-07-27T12:01:49.846Z,20.56
2022-07-27T12:04:24.370Z,20.39
2022-07-27T12:07:02.938Z,20.00
2022-07-27T12:09:38.430Z,20.25
2022-07-27T12:12:14.031Z,20.23
2022-07-27T12:14:44.430Z,20.26
2022-07-27T12:17:31.686Z,20.28
2022-07-27T12:20:02.439Z,20.31
2022-07-27T12:22:33.753Z,20.29
2022-07-27T12:25:12.402Z,20.34
2022-07-27T12:27:56.168Z,20.50
2022-07-27T12:30:32.103Z,20.52
2022-07-27T12:33:02.827Z,20.51
2022-07-27T12:35:37.393Z,20.69
2022-07-27T12:38:08.312Z,20.32
2022-07-27T12:40:45.484Z,20.79
2022-07-27T12:43:17.493Z,20.76
2022-07-27T12:45:46.812Z,20.92
2022-07-27T12:48:18.703Z,20.90
2022-07-27T12:50:49.331Z,20.98
2022-07-27T12:53:18.994Z,21.21
2022-07-27T12:55:47.143Z,21.36
2022-07-27T12:58:15.499Z,21.50
2022-07-27T13:00:44.224Z,21.69
2022-07-27T13:03:12.515Z,21.90
2022-07-27T13:05:42.623Z,22.21
2022-07-27T13:08:11.184Z,22.46
2022-07-27T13:10:39.704Z,22.62
2022-07-27T13:13:09.604Z,22.69
2022-07-27T13:15:37.787Z,22.55
2022-07-27T13:18:06.328Z,22.64
2022-07-27T13:20:37.037Z,22.46
2022-07-27T13:23:08.630Z,22.34
2022-07-27T13:25:41.203Z,22.18
2022-07-27T13:28:11.740Z,22.04
2022-07-27T13:30:39.669Z,21.98
2022-07-27T13:33:07.536Z,22.00
2022-07-27T13:35:35.758Z,21.95
2022-07-27T13:38:03.735Z,21.86
2022-07-27T13:40:32.963Z,21.79
2022-07-27T13:43:01.143Z,21.75
2022-07-27T13:45:29.210Z,21.68
2022-07-27T13:48:12.079Z,21.45
2022-07-27T13:50:41.097Z,21.46
2022-07-27T13:53:08.989Z,21.22
2022-07-27T13:55:38.977Z,21.20
2022-07-27T13:58:06.868Z,21.10
2022-07-27T14:00:34.785Z,20.83
2022-07-27T14:03:02.925Z,20.96
2022-07-27T14:05:30.884Z,21.05
2022-07-27T14:08:00.073Z,21.07
2022-07-27T14:10:39.985Z,21.00
2022-07-27T14:13:12.203Z,20.87
2022-07-27T14:15:54.398Z,20.44
2022-07-27T14:18:28.104Z,20.71
2022-07-27T14:20:57.436Z,20.51
2022-07-27T14:23:26.465Z,20.73
2022-07-27T14:25:55.341Z,20.75
2022-07-27T14:28:25.871Z,20.72
2022-07-27T14:30:54.718Z,20.65
2022-07-27T14:33:23.383Z,20.56
2022-07-27T14:35:52.854Z,20.45
2022-07-27T14:38:28.322Z,20.30
2022-07-27T14:40:59.762Z,20.09
2022-07-27T14:43:29.842Z,20.10
2022-07-27T14:45:58.071Z,19.89
2022-07-27T14:48:48.557Z,19.90
2022-07-27T14:51:14.181Z,19.90
2022-07-27T14:53:42.495Z,19.90
2022-07-27T14:56:10.357Z,19.87
2022-07-27T14:58:39.675Z,19.77
2022-07-27T15:01:07.798Z,19.83
2022-07-27T15:03:35.932Z,19.80
2022-07-27T15:06:03.867Z,19.75
2022-07-27T15:08:32.067Z,19.14
2022-07-27T15:10:59.996Z,19.72
2022-07-27T15:13:27.877Z,19.70
2022-07-27T15:15:58.240Z,19.69
2022-07-27T15:18:26.219Z,19.70
2022-07-27T15:20:54.297Z,19.74
2022-07-27T15:23:22.654Z,19.77
2022-07-27T15:25:50.586Z,19.75
2022-07-27T15:28:18.544Z,19.90
2022-07-27T15:30:47.129Z,19.97
2022-07-27T15:33:16.491Z,20.04
2022-07-27T15:35:44.559Z,20.08
2022-07-27T15:38:12.694Z,20.06
2022-07-27T15:40:41.769Z,20.18
2022-07-27T15:43:11.887Z,20.21
2022-07-27T15:45:40.986Z,19.21
2022-07-27T15:48:10.926Z,20.24
2022-07-27T15:50:42.161Z,20.24
2022-07-27T15:53:11.079Z,20.23
2022-07-27T15:55:39.563Z,20.22
2022-07-27T15:58:08.797Z,20.23
2022-07-27T16:00:41.239Z,20.22
2022-07-27T16:03:10.667Z,20.22
2022-07-27T16:05:40.577Z,20.21
2022-07-27T16:08:09.949Z,20.18
2022-07-27T16:10:38.237Z,20.15
2022-07-27T16:13:06.638Z,20.14
2022-07-27T16:15:52.643Z,19.98
2022-07-27T16:18:20.702Z,20.06
2022-07-27T16:20:50.046Z,19.96
2022-07-27T16:23:21.167Z,20.00
2022-07-27T16:26:03.904Z,19.63
2022-07-27T16:28:34.004Z,19.98
2022-07-27T16:31:02.763Z,19.93
2022-07-27T16:33:30.754Z,20.03
2022-07-27T16:36:00.832Z,20.02
2022-07-27T16:38:29.352Z,20.00
2022-07-27T16:40:57.298Z,19.95
2022-07-27T16:43:37.478Z,19.80
2022-07-27T16:46:08.804Z,19.90
2022-07-27T16:48:42.494Z,19.89
2022-07-27T16:51:13.734Z,19.70
2022-07-27T16:53:43.839Z,19.82
2022-07-27T16:56:12.428Z,19.76
2022-07-27T16:58:41.266Z,19.80
2022-07-27T17:01:22.009Z,19.78
2022-07-27T17:03:54.171Z,19.69
2022-07-27T17:06:23.873Z,19.77
2022-07-27T17:08:51.936Z,19.75
2022-07-27T17:11:21.741Z,19.75
2022-07-27T17:13:50.525Z,19.70
2022-07-27T17:16:19.032Z,19.56
2022-07-27T17:18:47.207Z,19.58
2022-07-27T17:21:15.328Z,19.52
2022-07-27T17:23:45.080Z,19.46
2022-07-27T17:26:14.175Z,19.36
2022-07-27T17:28:43.183Z,18.83
2022-07-27T17:31:12.940Z,19.18
2022-07-27T17:33:41.752Z,19.21
2022-07-27T17:36:15.101Z,19.17
2022-07-27T17:38:46.190Z,19.10
2022-07-27T17:41:18.110Z,19.01
2022-07-27T17:43:49.883Z,18.92
2022-07-27T17:46:18.552Z,18.69
2022-07-27T17:48:46.704Z,18.69
2022-07-27T17:51:14.855Z,18.80
2022-07-27T17:53:43.886Z,18.77
2022-07-27T17:56:13.378Z,18.71
2022-07-27T17:58:42.948Z,18.68
2022-07-27T18:01:11.155Z,18.65
2022-07-27T18:03:40.228Z,18.68
2022-07-27T18:06:08.621Z,18.62
2022-07-27T18:08:37.058Z,18.63
2022-07-27T18:11:05.455Z,18.60
2022-07-27T18:13:39.576Z,18.58
2022-07-27T18:16:09.462Z,18.57
2022-07-27T18:18:37.990Z,18.55
2022-07-27T18:21:06.181Z,18.52
2022-07-27T18:23:34.372Z,18.60
2022-07-27T18:26:02.450Z,18.59
2022-07-27T18:28:33.460Z,18.62
2022-07-27T18:31:06.973Z,18.58
2022-07-27T18:33:36.999Z,18.61
2022-07-27T18:36:06.440Z,18.51
2022-07-27T18:38:34.845Z,18.61
2022-07-27T18:41:03.068Z,18.62
2022-07-27T18:43:31.040Z,18.61
2022-07-27T18:45:59.263Z,18.53
2022-07-27T18:48:28.923Z,18.51
2022-07-27T18:50:56.966Z,18.40
2022-07-27T18:53:25.144Z,18.38
2022-07-27T18:55:56.592Z,18.29
2022-07-27T18:58:25.422Z,18.24
2022-07-27T19:00:54.953Z,18.12
2022-07-27T19:03:24.550Z,17.93
2022-07-27T19:05:54.767Z,17.97
2022-07-27T19:08:23.968Z,18.01
2022-07-27T19:10:52.474Z,17.87
2022-07-27T19:13:21.236Z,17.90
2022-07-27T19:15:49.266Z,17.85
2022-07-27T19:18:17.247Z,17.71
2022-07-27T19:20:45.308Z,17.67
2022-07-27T19:23:14.638Z,17.57
2022-07-27T19:25:42.512Z,17.45
2022-07-27T19:28:10.590Z,17.35
2022-07-27T19:30:39.297Z,16.62
2022-07-27T19:33:07.266Z,17.20
2022-07-27T19:35:35.674Z,17.12
2022-07-27T19:38:03.761Z,17.04
2022-07-27T19:40:44.198Z,16.97
2022-07-27T19:43:13.950Z,16.86
2022-07-27T19:45:42.599Z,16.79
2022-07-27T19:48:10.716Z,16.76
2022-07-27T19:50:40.078Z,16.67
2022-07-27T19:53:08.201Z,16.58
2022-07-27T19:55:37.549Z,16.45
2022-07-27T19:58:05.904Z,16.25
2022-07-27T20:00:33.819Z,16.24
2022-07-27T20:03:01.874Z,16.23
2022-07-27T20:05:30.100Z,16.06
2022-07-27T20:07:59.374Z,15.81
2022-07-27T20:10:27.314Z,16.09
2022-07-27T20:12:56.818Z,16.08
2022-07-27T20:15:26.296Z,16.08
2022-07-27T20:17:54.256Z,16.00
2022-07-27T20:20:22.494Z,16.01
2022-07-27T20:22:50.427Z,15.98
2022-07-27T20:25:18.669Z,15.81
2022-07-27T20:27:47.774Z,16.08
2022-07-27T20:30:20.048Z,16.08
2022-07-27T20:32:48.438Z,16.06
2022-07-27T20:35:16.567Z,15.75
2022-07-27T20:37:44.910Z,15.96
2022-07-27T20:40:13.810Z,15.95
2022-07-27T20:42:42.704Z,15.88
2022-07-27T20:45:14.663Z,15.81
2022-07-27T20:47:44.677Z,15.70
2022-07-27T20:50:14.855Z,15.62
2022-07-27T20:52:43.969Z,15.48
2022-07-27T20:55:12.421Z,15.58
2022-07-27T20:57:40.757Z,15.59
2022-07-27T21:00:10.695Z,15.58
2022-07-27T21:02:39.085Z,15.60
2022-07-27T21:05:10.049Z,15.43
2022-07-27T21:07:38.686Z,15.53
2022-07-27T21:10:08.082Z,15.50
2022-07-27T21:12:36.165Z,15.40
2022-07-27T21:15:09.828Z,15.44
2022-07-27T21:17:40.966Z,15.38
2022-07-27T21:20:11.659Z,15.41
2022-07-27T21:22:39.536Z,15.43
2022-07-27T21:25:06.934Z,15.41
2022-07-27T21:27:35.595Z,15.36
2022-07-27T21:30:03.789Z,15.26
2022-07-27T21:32:31.992Z,15.16
2022-07-27T21:35:00.031Z,15.06
2022-07-27T21:37:29.274Z,15.00
2022-07-27T21:39:57.367Z,14.94
2022-07-27T21:42:25.349Z,14.89
2022-07-27T21:44:53.645Z,14.80
2022-07-27T21:47:21.720Z,14.74
2022-07-27T21:49:49.836Z,14.71
2022-07-27T21:52:17.766Z,14.65
2022-07-27T21:54:47.158Z,14.60
2022-07-27T21:57:15.109Z,14.56
2022-07-27T21:59:43.083Z,14.48
2022-07-27T22:02:11.078Z,14.41
2022-07-27T22:04:39.393Z,14.36
2022-07-27T22:07:07.569Z,14.30
2022-07-27T22:09:46.118Z,14.25
2022-07-27T22:12:14.118Z,14.21
2022-07-27T22:14:42.025Z,14.15
2022-07-27T22:17:09.990Z,14.11
2022-07-27T22:19:37.962Z,14.05
2022-07-27T22:22:05.937Z,13.94
2022-07-27T22:24:34.257Z,14.03
2022-07-27T22:27:03.750Z,14.00
2022-07-27T22:29:34.835Z,13.97
2022-07-27T22:32:03.034Z,13.91
2022-07-27T22:34:31.022Z,13.98
2022-07-27T22:36:58.961Z,13.97
2022-07-27T22:39:27.045Z,13.96
2022-07-27T22:41:54.978Z,13.92
2022-07-27T22:44:24.411Z,13.88
2022-07-27T22:46:52.476Z,13.84
2022-07-27T22:49:20.469Z,13.64
2022-07-27T22:51:52.504Z,13.61
2022-07-27T22:54:22.416Z,13.75
2022-07-27T22:56:50.691Z,13.65
2022-07-27T22:59:18.741Z,13.71
2022-07-27T23:01:48.647Z,13.67
2022-07-27T23:04:18.086Z,13.60
2022-07-27T23:06:47.172Z,13.53
2022-07-27T23:09:15.685Z,13.66
2022-07-27T23:11:44.512Z,13.67
2022-07-27T23:14:12.909Z,13.59
2022-07-27T23:16:41.388Z,13.68
2022-07-27T23:19:10.947Z,13.68
2022-07-27T23:21:39.763Z,13.62
2022-07-27T23:24:11.137Z,13.67
2022-07-27T23:26:39.577Z,13.65
2022-07-27T23:29:07.595Z,13.63
2022-07-27T23:31:35.861Z,13.62
2022-07-27T23:34:03.943Z,13.61
2022-07-27T23:36:33.133Z,13.60
2022-07-27T23:39:01.148Z,13.59
2022-07-27T23:41:29.182Z,13.51
2022-07-27T23:43:57.099Z,13.50
2022-07-27T23:46:25.188Z,13.50
2022-07-27T23:48:53.200Z,13.56
2022-07-27T23:51:21.773Z,13.56
2022-07-27T23:53:51.577Z,13.56
2022-07-27T23:56:19.615Z,13.56
2022-07-27T23:58:47.454Z,13.55
